Time;durP1;ratioP1;P1;durP2;ratioP2;P2;SDS_P1;SDS_P2;PMS_P1;PMS_P2;Temp;Humidity;BMP_temperature;BMP_pressure;BME280_temperature;BME280_humidity;BME280_pressure;Samples;Min_cycle;Max_cycle;Signal;HPM_P1;HPM_P2
2022/03/29 00:01:42;;;;;;;22.93;13.87;;;;;;;;;;5016152;28;20357;-85
2022/03/29 00:04:08;;;;;;;34.28;14.93;;;;;;;;;;5016873;28;20680;-86
2022/03/29 00:06:33;;;;;;;23.67;14.43;;;;;;;;;;5018468;28;20033;-86
2022/03/29 00:08:58;;;;;;;24.50;14.20;;;;;;;;;;5019754;28;20033;-83
2022/03/29 00:11:23;;;;;;;24.13;14.52;;;;;;;;;;5016783;28;20018;-86
2022/03/29 00:13:49;;;;;;;23.27;14.60;;;;;;;;;;5018964;28;20570;-85
2022/03/29 00:16:14;;;;;;;27.40;15.38;;;;;;;;;;5018115;28;20037;-86
2022/03/29 00:18:39;;;;;;;23.00;13.80;;;;;;;;;;5018861;28;20076;-82
2022/03/29 00:21:05;;;;;;;30.60;16.07;;;;;;;;;;5015507;28;20026;-83
2022/03/29 00:23:30;;;;;;;23.23;13.35;;;;;;;;;;5015832;28;20365;-83
2022/03/29 00:25:55;;;;;;;23.77;13.13;;;;;;;;;;5019698;28;20364;-84
2022/03/29 00:28:20;;;;;;;26.75;15.30;;;;;;;;;;5023430;28;20053;-85
2022/03/29 00:30:46;;;;;;;25.20;14.37;;;;;;;;;;5020625;28;20503;-86
2022/03/29 00:33:11;;;;;;;24.48;14.27;;;;;;;;;;5018118;28;20314;-80
2022/03/29 00:35:36;;;;;;;22.75;14.07;;;;;;;;;;5005918;28;20372;-82
2022/03/29 00:38:01;;;;;;;24.20;13.73;;;;;;;;;;4998805;28;20022;-84
2022/03/29 00:40:27;;;;;;;25.73;12.50;;;;;;;;;;4998158;28;20106;-84
2022/03/29 00:42:52;;;;;;;21.60;14.00;;;;;;;;;;4998076;28;20030;-87
2022/03/29 00:45:17;;;;;;;25.20;14.00;;;;;;;;;;5000129;28;20046;-87
2022/03/29 00:47:42;;;;;;;25.08;14.77;;;;;;;;;;5001465;28;20101;-86
2022/03/29 00:50:08;;;;;;;18.02;12.55;;;;;;;;;;5000929;28;20435;-85
2022/03/29 00:52:34;;;;;;;21.40;12.73;;;;;;;;;;5002036;28;20050;-83
2022/03/29 00:55:00;;;;;;;21.70;12.88;;;;;;;;;;4998893;28;20117;-87
2022/03/29 00:57:27;;;;;;;21.85;13.05;;;;;;;;;;5000963;28;20493;-87
2022/03/29 00:59:52;;;;;;;25.40;13.13;;;;;;;;;;5014932;28;20018;-87
2022/03/29 01:02:17;;;;;;;20.73;11.98;;;;;;;;;;4999742;28;20373;-86
2022/03/29 01:04:43;;;;;;;24.67;13.03;;;;;;;;;;4999450;28;20046;-91
2022/03/29 01:07:09;;;;;;;19.85;12.38;;;;;;;;;;4999471;28;20258;-85
2022/03/29 01:09:34;;;;;;;19.90;12.13;;;;;;;;;;4998615;28;20022;-83
2022/03/29 01:11:59;;;;;;;21.30;12.23;;;;;;;;;;5015084;28;20038;-84
2022/03/29 01:14:25;;;;;;;20.83;13.00;;;;;;;;;;4997901;28;20046;-84
2022/03/29 01:19:38;;;;;;;20.52;12.45;;;;;;;;;;4998802;28;20029;-85
2022/03/29 01:22:09;;;;;;;23.20;12.20;;;;;;;;;;5000309;28;20018;-87
2022/03/29 01:24:35;;;;;;;21.45;12.27;;;;;;;;;;5002028;28;20033;-89
2022/03/29 01:27:00;;;;;;;18.27;11.85;;;;;;;;;;4999283;28;20038;-84
2022/03/29 01:29:27;;;;;;;23.02;12.43;;;;;;;;;;4999956;28;20073;-87
2022/03/29 01:31:52;;;;;;;21.15;11.95;;;;;;;;;;4999829;28;20010;-83
2022/03/29 01:34:21;;;;;;;20.67;12.50;;;;;;;;;;5000178;28;20030;-83
2022/03/29 01:36:47;;;;;;;23.95;11.10;;;;;;;;;;5001438;28;20023;-89
2022/03/29 01:39:12;;;;;;;18.50;11.60;;;;;;;;;;5007849;28;20026;-88
2022/03/29 01:41:38;;;;;;;23.35;12.45;;;;;;;;;;5004399;28;20026;-91
2022/03/29 01:44:04;;;;;;;18.05;11.10;;;;;;;;;;5004362;28;20022;-84
2022/03/29 01:46:29;;;;;;;23.40;11.93;;;;;;;;;;5004283;28;20026;-86
2022/03/29 01:48:55;;;;;;;19.88;12.10;;;;;;;;;;5006496;28;20078;-87
2022/03/29 01:51:20;;;;;;;19.95;12.20;;;;;;;;;;5005060;28;20030;-85
2022/03/29 01:53:51;;;;;;;17.00;11.18;;;;;;;;;;5006089;28;20104;-84
2022/03/29 01:56:17;;;;;;;21.30;11.52;;;;;;;;;;5003577;28;20045;-85
2022/03/29 01:58:42;;;;;;;16.77;10.90;;;;;;;;;;5002435;28;20082;-86
2022/03/29 02:01:08;;;;;;;21.90;12.45;;;;;;;;;;5004125;28;20280;-84
2022/03/29 02:03:33;;;;;;;18.80;12.13;;;;;;;;;;5003978;28;20082;-83
2022/03/29 02:05:59;;;;;;;20.23;12.07;;;;;;;;;;5001511;28;20022;-81
2022/03/29 02:08:24;;;;;;;20.10;11.82;;;;;;;;;;5002216;28;20015;-85
2022/03/29 02:10:49;;;;;;;19.13;11.05;;;;;;;;;;5002456;28;20027;-85
2022/03/29 02:13:16;;;;;;;20.75;12.27;;;;;;;;;;5004109;28;20045;-82
2022/03/29 02:15:42;;;;;;;19.52;11.82;;;;;;;;;;5000420;28;20054;-81
2022/03/29 02:18:07;;;;;;;21.13;11.98;;;;;;;;;;4999362;28;20025;-85
2022/03/29 02:20:32;;;;;;;20.20;11.18;;;;;;;;;;5004480;28;20026;-83
2022/03/29 02:23:06;;;;;;;23.00;12.57;;;;;;;;;;5003324;28;20407;-85
2022/03/29 02:25:31;;;;;;;20.23;12.02;;;;;;;;;;5003141;28;20031;-83
2022/03/29 02:27:57;;;;;;;17.23;11.27;;;;;;;;;;5021785;28;20022;-81
2022/03/29 02:30:22;;;;;;;20.42;11.95;;;;;;;;;;5008902;28;20026;-85
2022/03/29 02:32:47;;;;;;;24.65;12.05;;;;;;;;;;5004361;28;20022;-84
2022/03/29 02:35:13;;;;;;;21.50;12.43;;;;;;;;;;5003056;28;20043;-86
2022/03/29 02:37:38;;;;;;;20.65;11.40;;;;;;;;;;5002842;28;20027;-82
2022/03/29 02:40:05;;;;;;;21.38;11.73;;;;;;;;;;5003002;28;20022;-82
2022/03/29 02:42:31;;;;;;;19.35;12.07;;;;;;;;;;5000670;28;20014;-85
2022/03/29 02:44:56;;;;;;;17.63;11.43;;;;;;;;;;5000125;28;20045;-87
2022/03/29 02:47:21;;;;;;;19.45;11.85;;;;;;;;;;5001387;28;20437;-84
2022/03/29 02:49:46;;;;;;;18.30;11.73;;;;;;;;;;5001798;28;20030;-84
2022/03/29 02:52:12;;;;;;;18.23;11.75;;;;;;;;;;5014602;28;20030;-79
2022/03/29 02:54:38;;;;;;;20.15;12.75;;;;;;;;;;5009955;28;20061;-76
2022/03/29 02:57:04;;;;;;;19.05;11.32;;;;;;;;;;5007176;28;20180;-78
2022/03/29 02:59:29;;;;;;;18.52;11.52;;;;;;;;;;5002060;28;20021;-80
2022/03/29 03:01:55;;;;;;;21.40;11.77;;;;;;;;;;5013192;28;20040;-79
2022/03/29 03:04:21;;;;;;;16.40;10.98;;;;;;;;;;4996609;28;20010;-76
2022/03/29 03:06:46;;;;;;;16.40;10.10;;;;;;;;;;4996195;28;20105;-77
2022/03/29 03:09:11;;;;;;;18.77;11.40;;;;;;;;;;5011152;28;20022;-79
2022/03/29 03:11:36;;;;;;;20.08;11.35;;;;;;;;;;4994540;28;20018;-86
2022/03/29 03:14:02;;;;;;;18.35;10.98;;;;;;;;;;4994277;28;20054;-78
2022/03/29 03:16:27;;;;;;;18.48;11.25;;;;;;;;;;5010294;28;20041;-78
2022/03/29 03:18:53;;;;;;;15.90;11.15;;;;;;;;;;5012631;28;20033;-76
2022/03/29 03:21:18;;;;;;;14.15;10.55;;;;;;;;;;5013698;28;20025;-78
2022/03/29 03:23:43;;;;;;;15.77;10.55;;;;;;;;;;5014070;28;20105;-80
2022/03/29 03:26:08;;;;;;;17.75;10.48;;;;;;;;;;5014128;28;20006;-83
2022/03/29 03:28:34;;;;;;;18.80;10.48;;;;;;;;;;5014190;28;20104;-77
2022/03/29 03:30:59;;;;;;;16.83;10.90;;;;;;;;;;5013715;28;20026;-80
2022/03/29 03:33:24;;;;;;;19.42;10.98;;;;;;;;;;5013541;28;20018;-77
2022/03/29 03:35:49;;;;;;;17.05;11.27;;;;;;;;;;5013574;28;20084;-81
2022/03/29 03:38:15;;;;;;;19.45;11.02;;;;;;;;;;5013342;28;20114;-78
2022/03/29 03:40:43;;;;;;;19.05;11.40;;;;;;;;;;5011840;28;20034;-79
2022/03/29 03:43:08;;;;;;;21.48;11.98;;;;;;;;;;5013439;28;20030;-79
2022/03/29 03:45:34;;;;;;;18.75;11.23;;;;;;;;;;5012550;28;20030;-79
2022/03/29 03:47:59;;;;;;;17.98;11.15;;;;;;;;;;5013519;28;20025;-79
2022/03/29 03:50:24;;;;;;;16.40;10.00;;;;;;;;;;5012061;28;20030;-75
2022/03/29 03:52:51;;;;;;;18.05;10.90;;;;;;;;;;4998482;28;20081;-78
2022/03/29 03:55:16;;;;;;;18.67;11.55;;;;;;;;;;4993923;28;20045;-80
2022/03/29 03:57:41;;;;;;;16.08;10.90;;;;;;;;;;4994606;28;20018;-82
2022/03/29 04:00:07;;;;;;;23.45;11.32;;;;;;;;;;4996150;28;20099;-80
2022/03/29 04:02:32;;;;;;;19.88;11.93;;;;;;;;;;4998621;28;20480;-79
2022/03/29 04:04:57;;;;;;;17.70;10.57;;;;;;;;;;4997933;28;20025;-77
2022/03/29 04:07:22;;;;;;;17.40;10.65;;;;;;;;;;4994463;28;20033;-78
2022/03/29 04:09:48;;;;;;;19.65;10.95;;;;;;;;;;4994031;28;20072;-80
2022/03/29 04:12:13;;;;;;;22.63;11.02;;;;;;;;;;5009544;28;20015;-82
2022/03/29 04:14:38;;;;;;;19.58;10.48;;;;;;;;;;4996093;28;20058;-76
2022/03/29 04:17:04;;;;;;;18.13;11.15;;;;;;;;;;4995069;28;20022;-79
2022/03/29 04:19:30;;;;;;;14.93;10.55;;;;;;;;;;4997509;28;20064;-86
2022/03/29 04:21:55;;;;;;;20.92;10.68;;;;;;;;;;4998802;28;20038;-85
2022/03/29 04:24:20;;;;;;;19.90;11.93;;;;;;;;;;4998281;28;20029;-84
2022/03/29 04:26:47;;;;;;;18.27;10.27;;;;;;;;;;4998064;28;20022;-81
2022/03/29 04:29:12;;;;;;;18.95;11.68;;;;;;;;;;4995796;28;20025;-84
2022/03/29 04:31:37;;;;;;;17.35;10.63;;;;;;;;;;4996161;28;20085;-78
2022/03/29 04:34:04;;;;;;;19.45;11.10;;;;;;;;;;4996057;28;20077;-78
2022/03/29 04:36:29;;;;;;;18.45;10.88;;;;;;;;;;4996022;28;20129;-80
2022/03/29 04:38:57;;;;;;;23.73;11.38;;;;;;;;;;4993630;28;20106;-78
2022/03/29 04:41:23;;;;;;;18.25;11.52;;;;;;;;;;4993673;28;20102;-78
2022/03/29 04:43:48;;;;;;;19.40;11.18;;;;;;;;;;4993648;28;20022;-80
2022/03/29 04:46:13;;;;;;;19.08;11.35;;;;;;;;;;4993300;28;20427;-80
2022/03/29 04:48:38;;;;;;;18.52;11.60;;;;;;;;;;4995047;28;20101;-78
2022/03/29 04:51:04;;;;;;;22.50;10.68;;;;;;;;;;4994307;28;20042;-87
2022/03/29 04:53:29;;;;;;;18.40;11.05;;;;;;;;;;4998979;28;20489;-82
2022/03/29 04:55:55;;;;;;;22.30;11.23;;;;;;;;;;5006226;28;20038;-84
2022/03/29 04:58:21;;;;;;;19.33;11.68;;;;;;;;;;4998158;28;20022;-82
2022/03/29 05:00:46;;;;;;;19.63;12.57;;;;;;;;;;5017553;28;20104;-80
2022/03/29 05:03:11;;;;;;;26.75;13.18;;;;;;;;;;5027922;28;20391;-80
2022/03/29 05:05:37;;;;;;;35.05;15.30;;;;;;;;;;5032522;28;20030;-79
2022/03/29 05:08:02;;;;;;;36.97;18.63;;;;;;;;;;5032691;28;20005;-78
2022/03/29 05:10:27;;;;;;;44.85;19.20;;;;;;;;;;5031546;28;20021;-83
2022/03/29 05:12:52;;;;;;;44.83;20.42;;;;;;;;;;5027318;28;20029;-88
2022/03/29 05:15:19;;;;;;;50.58;22.17;;;;;;;;;;5022013;28;20454;-84
2022/03/29 05:17:46;;;;;;;55.53;22.80;;;;;;;;;;5016671;28;20376;-76
2022/03/29 05:20:12;;;;;;;56.65;22.73;;;;;;;;;;5010452;28;20076;-77
2022/03/29 05:22:45;;;;;;;57.78;22.70;;;;;;;;;;5011548;28;20021;-79
2022/03/29 05:25:11;;;;;;;57.03;22.00;;;;;;;;;;5014815;28;20056;-75
2022/03/29 05:27:36;;;;;;;52.08;21.95;;;;;;;;;;5010153;28;20494;-73
2022/03/29 05:30:02;;;;;;;36.33;20.52;;;;;;;;;;5009786;28;20030;-76
2022/03/29 05:32:27;;;;;;;48.08;23.60;;;;;;;;;;5011050;28;20037;-76
2022/03/29 05:34:52;;;;;;;55.83;25.63;;;;;;;;;;5009740;28;20033;-78
2022/03/29 05:37:17;;;;;;;57.22;27.08;;;;;;;;;;5010901;28;20075;-76
2022/03/29 05:39:43;;;;;;;54.17;27.67;;;;;;;;;;5010997;28;20080;-74
2022/03/29 05:42:09;;;;;;;50.15;24.83;;;;;;;;;;5011158;28;20021;-75
2022/03/29 05:44:35;;;;;;;57.63;25.40;;;;;;;;;;5011321;28;20467;-75
2022/03/29 05:49:44;;;;;;;51.00;25.55;;;;;;;;;;4994914;28;20036;-76
2022/03/29 05:52:09;;;;;;;53.13;25.20;;;;;;;;;;4991070;28;20026;-76
2022/03/29 05:54:35;;;;;;;58.50;25.10;;;;;;;;;;4991125;28;20499;-76
2022/03/29 05:57:00;;;;;;;52.13;25.45;;;;;;;;;;5007156;28;20034;-73
2022/03/29 05:59:26;;;;;;;53.80;25.88;;;;;;;;;;4994918;28;20022;-75
2022/03/29 06:01:51;;;;;;;61.45;26.48;;;;;;;;;;4991433;28;20028;-74
2022/03/29 06:04:17;;;;;;;54.13;25.63;;;;;;;;;;4991102;28;20050;-76
2022/03/29 06:06:44;;;;;;;55.67;26.88;;;;;;;;;;4991100;28;20039;-73
2022/03/29 06:09:10;;;;;;;49.50;24.83;;;;;;;;;;4991155;28;20073;-75
2022/03/29 06:11:35;;;;;;;44.65;24.88;;;;;;;;;;4991888;28;20026;-73
2022/03/29 06:14:02;;;;;;;50.08;24.20;;;;;;;;;;4992959;28;20049;-86
2022/03/29 06:16:27;;;;;;;47.30;26.48;;;;;;;;;;4997332;28;20027;-78
2022/03/29 06:18:52;;;;;;;43.97;24.17;;;;;;;;;;5008553;28;20038;-75
2022/03/29 06:21:18;;;;;;;50.83;25.42;;;;;;;;;;5017368;28;20025;-74
2022/03/29 06:23:44;;;;;;;40.95;24.63;;;;;;;;;;5015853;28;20022;-74
2022/03/29 06:26:09;;;;;;;46.42;24.85;;;;;;;;;;5010943;28;20033;-78
2022/03/29 06:28:34;;;;;;;40.33;23.63;;;;;;;;;;5010800;28;20460;-77
2022/03/29 06:31:00;;;;;;;48.95;25.17;;;;;;;;;;5012213;28;20099;-76
2022/03/29 06:33:26;;;;;;;43.75;23.90;;;;;;;;;;5013840;28;20040;-75
2022/03/29 06:35:52;;;;;;;44.92;26.05;;;;;;;;;;5010186;28;20072;-76
2022/03/29 06:38:21;;;;;;;41.35;23.40;;;;;;;;;;5017208;28;20021;-75
2022/03/29 06:40:47;;;;;;;46.00;25.95;;;;;;;;;;5017872;28;20112;-76
2022/03/29 06:43:13;;;;;;;44.65;25.42;;;;;;;;;;5013620;28;20022;-77
2022/03/29 06:45:39;;;;;;;45.08;24.95;;;;;;;;;;5019844;28;20205;-79
2022/03/29 06:48:05;;;;;;;49.53;25.45;;;;;;;;;;5019244;28;20013;-83
2022/03/29 06:50:31;;;;;;;49.08;24.85;;;;;;;;;;5031331;28;20046;-79
2022/03/29 06:52:59;;;;;;;45.97;25.15;;;;;;;;;;5026449;28;20037;-86
2022/03/29 06:55:25;;;;;;;48.40;26.25;;;;;;;;;;5038224;28;20041;-87
2022/03/29 06:57:50;;;;;;;39.78;25.33;;;;;;;;;;5038310;28;20014;-87
2022/03/29 07:00:16;;;;;;;47.23;27.30;;;;;;;;;;5040550;28;20033;-82
2022/03/29 07:02:41;;;;;;;45.72;27.30;;;;;;;;;;5052863;28;20259;-88
2022/03/29 07:05:07;;;;;;;44.25;26.02;;;;;;;;;;5048005;28;20013;-81
2022/03/29 07:07:35;;;;;;;46.42;26.10;;;;;;;;;;5034338;28;20033;-86
2022/03/29 07:12:45;;;;;;;45.42;26.13;;;;;;;;;;5037453;28;20060;-91
2022/03/29 07:15:10;;;;;;;41.05;24.58;;;;;;;;;;5038840;28;20120;-86
2022/03/29 07:17:36;;;;;;;47.58;24.27;;;;;;;;;;5039004;28;20510;-85
2022/03/29 07:20:01;;;;;;;46.17;24.08;;;;;;;;;;5047003;28;20053;-84
2022/03/29 07:22:26;;;;;;;38.10;23.73;;;;;;;;;;5044667;28;20017;-75
2022/03/29 07:24:53;;;;;;;37.07;21.90;;;;;;;;;;5039623;28;20041;-88
2022/03/29 07:27:18;;;;;;;36.28;22.33;;;;;;;;;;5038383;28;20271;-84
2022/03/29 07:29:44;;;;;;;37.60;22.75;;;;;;;;;;5038445;28;20098;-87
2022/03/29 07:32:09;;;;;;;42.90;21.98;;;;;;;;;;5038760;28;20033;-88
2022/03/29 07:34:35;;;;;;;37.45;22.67;;;;;;;;;;5037865;28;20026;-84
2022/03/29 07:37:02;;;;;;;35.42;22.52;;;;;;;;;;5040115;28;20033;-78
2022/03/29 07:39:27;;;;;;;33.63;22.05;;;;;;;;;;5039314;28;20090;-77
2022/03/29 07:41:54;;;;;;;38.33;21.75;;;;;;;;;;5039614;28;20014;-81
2022/03/29 07:44:20;;;;;;;36.92;24.00;;;;;;;;;;5035734;28;20018;-85
2022/03/29 07:46:45;;;;;;;39.88;22.67;;;;;;;;;;5033950;28;20110;-89
2022/03/29 07:49:10;;;;;;;40.63;24.05;;;;;;;;;;5037194;28;20078;-89
2022/03/29 07:51:35;;;;;;;40.78;23.95;;;;;;;;;;5035174;28;20025;-88
2022/03/29 07:54:03;;;;;;;37.67;21.87;;;;;;;;;;5037145;28;20068;-85
2022/03/29 07:56:30;;;;;;;34.53;21.58;;;;;;;;;;5037522;28;20811;-87
2022/03/29 07:58:56;;;;;;;46.72;23.90;;;;;;;;;;5038681;28;20029;-85
2022/03/29 08:01:21;;;;;;;35.38;22.08;;;;;;;;;;5035158;28;20106;-82
2022/03/29 08:03:47;;;;;;;37.42;19.75;;;;;;;;;;5038765;28;20032;-83
2022/03/29 08:06:12;;;;;;;32.28;21.40;;;;;;;;;;5037396;28;20010;-86
2022/03/29 08:08:37;;;;;;;39.00;21.37;;;;;;;;;;5037012;28;20010;-84
2022/03/29 08:11:04;;;;;;;46.20;22.30;;;;;;;;;;5037128;28;20286;-83
2022/03/29 08:13:30;;;;;;;40.03;21.60;;;;;;;;;;5036869;28;19998;-76
2022/03/29 08:15:56;;;;;;;51.78;23.13;;;;;;;;;;5039242;28;20034;-83
2022/03/29 08:18:22;;;;;;;44.10;20.40;;;;;;;;;;5035944;28;20017;-85
2022/03/29 08:20:47;;;;;;;37.97;19.90;;;;;;;;;;5038864;28;20010;-85
2022/03/29 08:23:12;;;;;;;39.83;20.20;;;;;;;;;;5037203;28;20017;-87
2022/03/29 08:25:39;;;;;;;41.97;19.08;;;;;;;;;;5039471;28;20026;-74
2022/03/29 08:28:04;;;;;;;50.03;21.80;;;;;;;;;;5039577;28;20009;-76
2022/03/29 08:30:30;;;;;;;40.25;19.90;;;;;;;;;;5038589;28;20028;-77
2022/03/29 08:32:57;;;;;;;18.75;8.02;;;;;;;;;;5039093;28;20013;-79
2022/03/29 08:35:22;;;;;;;15.80;8.55;;;;;;;;;;5038698;28;20037;-86
2022/03/29 08:37:47;;;;;;;17.27;7.00;;;;;;;;;;5039077;28;20032;-74
2022/03/29 08:40:14;;;;;;;13.30;7.37;;;;;;;;;;5039200;28;20085;-77
2022/03/29 08:42:42;;;;;;;11.95;6.38;;;;;;;;;;5038915;28;20258;-83
2022/03/29 08:45:08;;;;;;;13.85;5.97;;;;;;;;;;5039160;28;20021;-75
2022/03/29 08:47:33;;;;;;;17.65;9.32;;;;;;;;;;5037716;28;20005;-83
2022/03/29 08:49:59;;;;;;;11.20;5.38;;;;;;;;;;5037527;28;20048;-81
2022/03/29 08:52:24;;;;;;;12.23;5.43;;;;;;;;;;5039001;28;20002;-74
2022/03/29 08:54:50;;;;;;;10.60;4.93;;;;;;;;;;5038769;28;20045;-82
2022/03/29 08:57:15;;;;;;;11.90;5.68;;;;;;;;;;5038406;28;20006;-81
2022/03/29 08:59:42;;;;;;;9.13;5.30;;;;;;;;;;5036934;28;20013;-74
2022/03/29 09:02:16;;;;;;;15.38;5.28;;;;;;;;;;5038308;28;20040;-82
2022/03/29 09:04:42;;;;;;;10.05;5.82;;;;;;;;;;5038561;28;20030;-80
2022/03/29 09:07:07;;;;;;;11.52;5.20;;;;;;;;;;5036354;28;20009;-85
2022/03/29 09:09:37;;;;;;;12.55;5.32;;;;;;;;;;5036553;28;20006;-84
2022/03/29 09:12:16;;;;;;;12.32;5.28;;;;;;;;;;5036571;28;20002;-84
2022/03/29 09:14:55;;;;;;;13.32;5.10;;;;;;;;;;5032540;28;20053;-77
2022/03/29 09:17:39;;;;;;;17.23;5.32;;;;;;;;;;5043626;28;20101;-85
2022/03/29 09:20:04;;;;;;;15.73;5.55;;;;;;;;;;5035035;28;20123;-82
2022/03/29 09:22:37;;;;;;;10.88;5.20;;;;;;;;;;5012288;28;20145;-75
2022/03/29 09:25:03;;;;;;;10.30;5.10;;;;;;;;;;5001116;28;20116;-76
2022/03/29 09:27:29;;;;;;;14.32;4.90;;;;;;;;;;5013405;28;20018;-76
2022/03/29 09:30:07;;;;;;;11.52;4.72;;;;;;;;;;5021274;28;20017;-77
2022/03/29 09:32:32;;;;;;;13.43;4.95;;;;;;;;;;5020192;28;20064;-81
2022/03/29 09:35:05;;;;;;;10.90;5.37;;;;;;;;;;5012806;28;20034;-79
2022/03/29 09:37:34;;;;;;;10.70;4.68;;;;;;;;;;5023559;28;20398;-77
2022/03/29 09:40:00;;;;;;;9.35;4.78;;;;;;;;;;5022495;28;20026;-78
2022/03/29 09:42:27;;;;;;;11.77;4.45;;;;;;;;;;5011235;28;20017;-78
2022/03/29 09:44:57;;;;;;;9.48;5.00;;;;;;;;;;5012536;28;20010;-80
2022/03/29 09:47:22;;;;;;;9.85;4.30;;;;;;;;;;5014948;28;20033;-77
2022/03/29 09:50:02;;;;;;;18.48;6.07;;;;;;;;;;5014562;28;20013;-84
2022/03/29 09:52:28;;;;;;;12.77;5.28;;;;;;;;;;5012747;28;20156;-76
2022/03/29 09:55:04;;;;;;;10.27;4.60;;;;;;;;;;5005293;28;20111;-78
2022/03/29 09:57:48;;;;;;;13.43;5.40;;;;;;;;;;5046153;28;20056;-77
2022/03/29 10:00:18;;;;;;;12.77;4.93;;;;;;;;;;5054092;28;20089;-85
2022/03/29 10:02:45;;;;;;;11.60;5.60;;;;;;;;;;5016715;28;20010;-77
2022/03/29 10:05:11;;;;;;;13.15;6.13;;;;;;;;;;5031362;28;20022;-75
2022/03/29 10:09:25;;;;;;;11.18;5.28;;;;;;;;;;5014842;28;20053;-75
2022/03/29 10:10:43;;;;;;;11.30;5.32;;;;;;;;;;5021127;28;20025;-73
2022/03/29 10:13:08;;;;;;;10.10;5.13;;;;;;;;;;5024069;28;20033;-75
2022/03/29 10:15:34;;;;;;;11.77;5.00;;;;;;;;;;5023866;28;20046;-75
2022/03/29 10:17:59;;;;;;;9.45;4.85;;;;;;;;;;5022426;28;20014;-73
2022/03/29 10:20:25;;;;;;;15.20;5.88;;;;;;;;;;5023182;28;20022;-75
2022/03/29 10:22:50;;;;;;;12.40;5.07;;;;;;;;;;5023595;28;20013;-75
2022/03/29 10:25:17;;;;;;;11.88;6.05;;;;;;;;;;5021284;28;20029;-74
2022/03/29 10:27:42;;;;;;;10.18;5.20;;;;;;;;;;5021646;28;20010;-75
2022/03/29 10:30:08;;;;;;;19.00;5.85;;;;;;;;;;5022753;28;20032;-74
2022/03/29 10:32:33;;;;;;;10.00;5.32;;;;;;;;;;5025045;28;20020;-76
2022/03/29 10:35:07;;;;;;;12.90;6.22;;;;;;;;;;5024868;28;20030;-75
2022/03/29 10:37:50;;;;;;;11.02;6.10;;;;;;;;;;5028482;28;20017;-75
2022/03/29 10:40:33;;;;;;;12.82;5.90;;;;;;;;;;5027698;28;20021;-76
2022/03/29 10:43:18;;;;;;;10.45;5.40;;;;;;;;;;5039743;28;20034;-80
2022/03/29 10:45:46;;;;;;;10.85;5.72;;;;;;;;;;5038812;28;20033;-82
2022/03/29 10:48:12;;;;;;;11.95;6.70;;;;;;;;;;5026042;28;20022;-80
2022/03/29 10:50:53;;;;;;;17.77;6.85;;;;;;;;;;5054686;28;20039;-84
2022/03/29 10:53:26;;;;;;;10.30;6.05;;;;;;;;;;5032284;28;20109;-78
2022/03/29 10:56:10;;;;;;;11.90;6.35;;;;;;;;;;5020616;28;20033;-84
2022/03/29 10:58:35;;;;;;;10.55;6.90;;;;;;;;;;5037690;28;20036;-86
2022/03/29 11:01:16;;;;;;;12.95;6.25;;;;;;;;;;5037044;28;20030;-84
2022/03/29 11:03:57;;;;;;;14.75;6.38;;;;;;;;;;5037759;28;20012;-87
2022/03/29 11:06:23;;;;;;;12.32;6.75;;;;;;;;;;5036973;28;20038;-86
2022/03/29 11:08:48;;;;;;;11.02;6.28;;;;;;;;;;5036894;28;20033;-87
2022/03/29 11:11:32;;;;;;;11.05;6.07;;;;;;;;;;5036078;28;20029;-84
2022/03/29 11:14:17;;;;;;;12.30;6.70;;;;;;;;;;5035648;28;20054;-85
2022/03/29 11:16:43;;;;;;;15.70;6.43;;;;;;;;;;5033924;28;20037;-87
2022/03/29 11:19:28;;;;;;;15.33;6.60;;;;;;;;;;5037765;28;20028;-86
2022/03/29 11:21:53;;;;;;;13.35;6.10;;;;;;;;;;5035090;28;20629;-82
2022/03/29 11:24:20;;;;;;;12.90;6.35;;;;;;;;;;5019150;28;20064;-79
2022/03/29 11:26:54;;;;;;;14.15;6.60;;;;;;;;;;5035057;28;20084;-84
2022/03/29 11:29:19;;;;;;;12.23;6.57;;;;;;;;;;5036919;28;20018;-85
2022/03/29 11:31:45;;;;;;;14.30;6.93;;;;;;;;;;5035389;28;20114;-83
2022/03/29 11:34:11;;;;;;;11.37;5.57;;;;;;;;;;5035455;28;20013;-83
2022/03/29 11:36:37;;;;;;;20.85;6.72;;;;;;;;;;5037798;28;20327;-85
2022/03/29 11:39:06;;;;;;;15.65;6.50;;;;;;;;;;5034811;28;20129;-86
2022/03/29 11:41:33;;;;;;;17.25;6.68;;;;;;;;;;5031320;28;20053;-83
2022/03/29 11:44:00;;;;;;;10.32;6.05;;;;;;;;;;5034576;28;20020;-86
2022/03/29 11:46:41;;;;;;;13.77;6.80;;;;;;;;;;5034673;28;20029;-81
2022/03/29 11:49:07;;;;;;;15.73;6.63;;;;;;;;;;5033692;28;20494;-84
2022/03/29 11:51:32;;;;;;;10.80;6.68;;;;;;;;;;5034399;28;20010;-84
2022/03/29 11:53:58;;;;;;;13.35;6.45;;;;;;;;;;5029856;28;20032;-86
2022/03/29 11:56:23;;;;;;;11.68;6.80;;;;;;;;;;5026761;28;20030;-82
2022/03/29 11:58:49;;;;;;;15.83;6.77;;;;;;;;;;5032714;28;21043;-86
2022/03/29 12:01:22;;;;;;;16.67;6.53;;;;;;;;;;5036462;28;20294;-81
2022/03/29 12:03:51;;;;;;;8.45;5.97;;;;;;;;;;5034851;28;20018;-86
2022/03/29 12:06:18;;;;;;;13.77;6.95;;;;;;;;;;5034789;28;20065;-85
2022/03/29 12:08:43;;;;;;;12.02;6.80;;;;;;;;;;5037520;28;20006;-85
2022/03/29 12:11:12;;;;;;;15.17;7.37;;;;;;;;;;5034909;28;20044;-84
2022/03/29 12:13:38;;;;;;;15.15;7.25;;;;;;;;;;5033497;28;20026;-84
2022/03/29 12:16:15;;;;;;;12.20;7.15;;;;;;;;;;5035700;28;20030;-80
2022/03/29 12:18:45;;;;;;;11.02;7.10;;;;;;;;;;5034315;28;20010;-82
2022/03/29 12:21:11;;;;;;;16.20;7.40;;;;;;;;;;5030543;28;20069;-74
2022/03/29 12:23:36;;;;;;;13.23;7.53;;;;;;;;;;5008076;28;20045;-73
2022/03/29 12:26:02;;;;;;;13.25;7.45;;;;;;;;;;5017188;28;20426;-73
2022/03/29 12:28:31;;;;;;;17.25;7.55;;;;;;;;;;5011649;28;20380;-73
2022/03/29 12:30:57;;;;;;;12.80;6.55;;;;;;;;;;5020065;28;20097;-72
2022/03/29 12:33:23;;;;;;;13.18;8.10;;;;;;;;;;5014619;28;20124;-74
2022/03/29 12:36:08;;;;;;;18.27;8.73;;;;;;;;;;5019745;28;20042;-73
2022/03/29 12:38:45;;;;;;;14.77;7.72;;;;;;;;;;4992967;28;20430;-74
2022/03/29 12:41:13;;;;;;;13.43;7.18;;;;;;;;;;5018538;28;20026;-73
2022/03/29 12:43:38;;;;;;;15.02;7.30;;;;;;;;;;5012267;28;20030;-73
2022/03/29 12:46:10;;;;;;;15.43;7.25;;;;;;;;;;5025634;28;21409;-75
2022/03/29 12:48:37;;;;;;;12.20;7.47;;;;;;;;;;5020660;28;20411;-73
2022/03/29 12:51:06;;;;;;;16.27;6.95;;;;;;;;;;5022708;28;20013;-74
2022/03/29 12:53:31;;;;;;;18.25;7.60;;;;;;;;;;5019019;28;20021;-74
2022/03/29 12:55:57;;;;;;;11.13;7.53;;;;;;;;;;5019192;28;20036;-73
2022/03/29 12:58:34;;;;;;;14.75;7.05;;;;;;;;;;5018862;28;20017;-72
2022/03/29 13:01:01;;;;;;;15.63;7.72;;;;;;;;;;5018722;28;20555;-74
2022/03/29 13:03:26;;;;;;;11.65;6.85;;;;;;;;;;5015388;28;20038;-77
2022/03/29 13:05:51;;;;;;;13.02;7.38;;;;;;;;;;5012736;28;20702;-73
2022/03/29 13:08:23;;;;;;;12.00;7.27;;;;;;;;;;5016020;28;20022;-74
2022/03/29 13:10:50;;;;;;;22.20;8.20;;;;;;;;;;5006366;28;20267;-74
2022/03/29 13:13:21;;;;;;;13.63;7.55;;;;;;;;;;5000426;28;20029;-73
2022/03/29 13:15:51;;;;;;;11.73;7.07;;;;;;;;;;4997902;28;20042;-74
2022/03/29 13:18:25;;;;;;;15.52;7.53;;;;;;;;;;5000861;28;20065;-73
2022/03/29 13:20:51;;;;;;;13.57;8.02;;;;;;;;;;5001399;28;20506;-73
2022/03/29 13:23:30;;;;;;;14.27;7.38;;;;;;;;;;5008133;28;20018;-73
2022/03/29 13:25:55;;;;;;;18.77;7.53;;;;;;;;;;5006133;28;20024;-73
2022/03/29 13:28:20;;;;;;;14.65;7.95;;;;;;;;;;5001916;28;20022;-73
2022/03/29 13:30:46;;;;;;;11.93;7.33;;;;;;;;;;5005847;28;20053;-73
2022/03/29 13:33:11;;;;;;;20.75;7.63;;;;;;;;;;5001918;28;20251;-75
2022/03/29 13:35:41;;;;;;;13.77;8.17;;;;;;;;;;5017068;28;20752;-74
2022/03/29 13:38:07;;;;;;;11.18;7.68;;;;;;;;;;5012018;28;20257;-73
2022/03/29 13:40:32;;;;;;;16.23;8.10;;;;;;;;;;5019067;28;20022;-72
2022/03/29 13:42:57;;;;;;;14.37;8.63;;;;;;;;;;5008533;28;20299;-73
2022/03/29 13:45:22;;;;;;;16.77;7.97;;;;;;;;;;5018688;28;20273;-73
2022/03/29 13:47:47;;;;;;;14.27;7.17;;;;;;;;;;5009830;28;20625;-73
2022/03/29 13:50:15;;;;;;;13.10;6.93;;;;;;;;;;5017429;28;20251;-74
2022/03/29 13:52:40;;;;;;;17.45;8.00;;;;;;;;;;5017577;28;20298;-74
2022/03/29 13:55:09;;;;;;;16.20;8.03;;;;;;;;;;5017457;28;20022;-73
2022/03/29 13:57:34;;;;;;;20.35;8.38;;;;;;;;;;5009783;28;20251;-73
2022/03/29 14:00:00;;;;;;;12.90;7.83;;;;;;;;;;5017525;28;20084;-73
2022/03/29 14:02:29;;;;;;;18.05;7.63;;;;;;;;;;5013721;28;20259;-73
2022/03/29 14:04:54;;;;;;;15.20;6.85;;;;;;;;;;5007979;28;20135;-73
2022/03/29 14:07:19;;;;;;;16.40;7.87;;;;;;;;;;5017844;28;20054;-74
2022/03/29 14:09:45;;;;;;;13.60;7.07;;;;;;;;;;5017399;28;20370;-73
2022/03/29 14:12:10;;;;;;;15.90;7.63;;;;;;;;;;5023259;28;20018;-73
2022/03/29 14:14:35;;;;;;;19.60;6.78;;;;;;;;;;5019450;28;20050;-74
2022/03/29 14:17:00;;;;;;;14.57;7.97;;;;;;;;;;5018457;28;20522;-74
2022/03/29 14:19:26;;;;;;;13.15;8.65;;;;;;;;;;5018524;28;20255;-74
2022/03/29 14:21:51;;;;;;;17.67;7.28;;;;;;;;;;5018060;28;20025;-74
2022/03/29 14:24:16;;;;;;;20.60;8.00;;;;;;;;;;5014456;28;20529;-73
2022/03/29 14:26:41;;;;;;;21.98;7.28;;;;;;;;;;5015989;28;20017;-73
2022/03/29 14:29:07;;;;;;;15.00;6.97;;;;;;;;;;5019268;28;20014;-74
2022/03/29 14:31:32;;;;;;;16.03;7.50;;;;;;;;;;5011942;28;20024;-74